Time;durP1;ratioP1;P1;durP2;ratioP2;P2;SDS_P1;SDS_P2;PMS_P1;PMS_P2;Temp;Humidity;BMP_temperature;BMP_pressure;BME280_temperature;BME280_humidity;BME280_pressure;Samples;Min_cycle;Max_cycle;Signal;HPM_P1;HPM_P2
2024/03/06 00:02:10;;;;;;;17.55;10.98;;;4.60;99.90;;;;;;5136958;27;20705;-62
2024/03/06 00:04:37;;;;;;;17.13;11.20;;;4.60;99.90;;;;;;5136729;27;20203;-61
2024/03/06 00:07:04;;;;;;;13.27;11.07;;;4.60;99.90;;;;;;5136112;27;20203;-62
2024/03/06 00:09:31;;;;;;;15.45;12.38;;;4.60;99.90;;;;;;5137256;27;20668;-62
2024/03/06 00:11:58;;;;;;;15.27;12.20;;;4.60;99.90;;;;;;5138917;27;20226;-61
2024/03/06 00:14:25;;;;;;;15.25;11.30;;;4.60;99.90;;;;;;5139319;27;20232;-62
2024/03/06 00:16:55;;;;;;;14.52;11.40;;;4.60;99.90;;;;;;5139621;27;20675;-62
2024/03/06 00:19:23;;;;;;;14.73;10.77;;;4.60;99.90;;;;;;5138356;27;20309;-63
2024/03/06 00:21:50;;;;;;;17.98;12.30;;;4.60;99.90;;;;;;5136837;27;20227;-62
2024/03/06 00:24:17;;;;;;;20.75;13.10;;;4.60;99.90;;;;;;5135758;27;20198;-62
2024/03/06 00:26:46;;;;;;;14.73;11.68;;;4.60;99.90;;;;;;5135907;27;20202;-61
2024/03/06 00:29:14;;;;;;;14.82;11.38;;;4.60;99.90;;;;;;5138103;27;20205;-62
2024/03/06 00:31:43;;;;;;;14.88;11.23;;;4.60;99.90;;;;;;5139076;27;20222;-62
2024/03/06 00:34:11;;;;;;;14.02;11.80;;;4.60;99.90;;;;;;5139274;27;20203;-61
2024/03/06 00:36:39;;;;;;;18.35;13.10;;;4.60;99.90;;;;;;5138876;27;20562;-61
2024/03/06 00:39:05;;;;;;;19.70;11.75;;;4.60;99.90;;;;;;5138575;27;20710;-61
2024/03/06 00:41:32;;;;;;;14.75;11.60;;;4.60;99.90;;;;;;5138814;27;20225;-62
2024/03/06 00:43:59;;;;;;;16.52;11.55;;;4.70;99.90;;;;;;5138928;27;20222;-63
2024/03/06 00:46:26;;;;;;;16.33;11.63;;;4.60;99.90;;;;;;5138706;27;20198;-61
2024/03/06 00:48:52;;;;;;;15.27;12.05;;;4.60;99.90;;;;;;5138466;27;20199;-63
2024/03/06 00:51:19;;;;;;;14.55;12.00;;;4.60;99.90;;;;;;5138154;27;20683;-62
2024/03/06 00:53:47;;;;;;;15.02;12.27;;;4.60;99.90;;;;;;5138077;27;20195;-61
2024/03/06 00:56:14;;;;;;;16.33;12.32;;;4.70;99.90;;;;;;5138452;27;20203;-62
2024/03/06 00:58:41;;;;;;;16.35;12.10;;;4.60;99.90;;;;;;5138227;27;20257;-62
2024/03/06 01:01:07;;;;;;;16.13;11.63;;;4.70;99.90;;;;;;5138587;27;20199;-62
2024/03/06 01:03:34;;;;;;;16.50;12.25;;;4.60;99.90;;;;;;5138223;27;20695;-61
2024/03/06 01:06:01;;;;;;;18.08;12.32;;;4.60;99.90;;;;;;5138454;27;20203;-62
2024/03/06 01:08:28;;;;;;;17.05;12.20;;;4.60;99.90;;;;;;5139345;27;20195;-62
2024/03/06 01:10:56;;;;;;;15.38;11.90;;;4.60;99.90;;;;;;5137783;27;20195;-62
2024/03/06 01:13:23;;;;;;;15.90;13.30;;;4.60;99.90;;;;;;5138631;27;20230;-62
2024/03/06 01:15:49;;;;;;;18.27;12.20;;;4.60;99.90;;;;;;5138003;27;20703;-62
2024/03/06 01:18:16;;;;;;;16.80;13.05;;;4.60;99.90;;;;;;5137830;27;20546;-62
2024/03/06 01:20:43;;;;;;;23.55;14.52;;;4.60;99.90;;;;;;5138250;27;20687;-62
2024/03/06 01:23:10;;;;;;;17.05;12.50;;;4.60;99.90;;;;;;5140392;27;20219;-62
2024/03/06 01:25:36;;;;;;;22.58;12.52;;;4.60;99.90;;;;;;5141597;27;20228;-61
2024/03/06 01:28:05;;;;;;;16.23;12.40;;;4.60;99.90;;;;;;5142712;27;20195;-62
2024/03/06 01:30:32;;;;;;;14.98;12.65;;;4.70;99.90;;;;;;5140530;27;20195;-62
2024/03/06 01:32:59;;;;;;;17.38;12.45;;;4.60;99.90;;;;;;5140083;27;20223;-62
2024/03/06 01:35:26;;;;;;;17.95;12.05;;;4.60;99.90;;;;;;5138942;27;20312;-62
2024/03/06 01:37:52;;;;;;;19.33;13.38;;;4.70;99.90;;;;;;5137435;27;20211;-62
2024/03/06 01:40:19;;;;;;;17.00;11.95;;;4.70;99.90;;;;;;5137054;27;20205;-62
2024/03/06 01:42:48;;;;;;;16.88;13.23;;;4.70;99.90;;;;;;5137264;27;20611;-63
2024/03/06 01:45:16;;;;;;;19.60;13.35;;;4.70;99.90;;;;;;5137876;27;20209;-63
2024/03/06 01:47:43;;;;;;;16.42;12.30;;;4.70;99.90;;;;;;5137455;27;20206;-62
2024/03/06 01:50:11;;;;;;;16.60;12.18;;;4.70;99.90;;;;;;5137537;27;20209;-61
2024/03/06 01:52:40;;;;;;;14.73;12.93;;;4.70;99.90;;;;;;5137488;27;20215;-62
2024/03/06 01:55:08;;;;;;;19.98;13.55;;;4.70;99.90;;;;;;5137806;27;20279;-63
2024/03/06 01:57:35;;;;;;;16.80;13.43;;;4.70;99.90;;;;;;5137454;27;20265;-62
2024/03/06 02:00:04;;;;;;;18.33;14.68;;;4.70;99.90;;;;;;5138009;27;20207;-63
2024/03/06 02:02:32;;;;;;;17.42;13.48;;;4.70;99.90;;;;;;5137736;27;20272;-62
2024/03/06 02:04:59;;;;;;;17.52;12.48;;;4.60;99.90;;;;;;5137890;27;20252;-62
2024/03/06 02:07:26;;;;;;;17.02;13.23;;;4.60;99.90;;;;;;5137401;27;20704;-63
2024/03/06 02:09:53;;;;;;;16.77;12.43;;;4.60;99.90;;;;;;5137694;27;20203;-62
2024/03/06 02:12:20;;;;;;;17.98;13.38;;;4.60;99.90;;;;;;5137194;27;20234;-62
2024/03/06 02:14:47;;;;;;;18.00;13.43;;;4.60;99.90;;;;;;5137301;27;20230;-62
2024/03/06 02:17:14;;;;;;;15.50;12.50;;;4.60;99.90;;;;;;5137231;27;20201;-62
2024/03/06 02:19:43;;;;;;;24.73;13.73;;;4.60;99.90;;;;;;5136933;27;20219;-63
2024/03/06 02:22:12;;;;;;;19.27;13.43;;;4.60;99.90;;;;;;5136881;27;20233;-63
2024/03/06 02:24:44;;;;;;;19.35;13.77;;;4.60;99.90;;;;;;5136712;27;20668;-62
2024/03/06 02:27:11;;;;;;;19.73;13.82;;;4.60;99.90;;;;;;5137266;27;20187;-62
2024/03/06 02:29:38;;;;;;;21.98;14.05;;;4.60;99.90;;;;;;5137767;27;20196;-62
2024/03/06 02:32:05;;;;;;;18.42;12.88;;;4.50;99.90;;;;;;5137654;27;20219;-61
2024/03/06 02:34:32;;;;;;;18.65;13.15;;;4.50;99.90;;;;;;5137131;27;20218;-63
2024/03/06 02:36:59;;;;;;;17.45;13.55;;;4.50;99.90;;;;;;5140609;27;20210;-63
2024/03/06 02:39:27;;;;;;;22.05;13.52;;;4.50;99.90;;;;;;5140777;27;20719;-61
2024/03/06 02:41:53;;;;;;;18.88;13.00;;;4.50;99.90;;;;;;5141489;27;20223;-61
2024/03/06 02:44:20;;;;;;;20.50;13.90;;;4.50;99.90;;;;;;5142180;27;20198;-62
2024/03/06 02:46:49;;;;;;;16.75;13.05;;;4.50;99.90;;;;;;5141886;27;20202;-61
2024/03/06 02:49:16;;;;;;;18.80;13.75;;;4.50;99.90;;;;;;5143457;27;20248;-64
2024/03/06 02:51:43;;;;;;;20.65;14.05;;;4.50;99.90;;;;;;5142147;27;20226;-61
2024/03/06 02:54:10;;;;;;;21.60;13.95;;;4.50;99.90;;;;;;5140981;27;20195;-62
2024/03/06 02:56:38;;;;;;;21.33;14.73;;;4.50;99.90;;;;;;5139545;27;20305;-61
2024/03/06 02:59:04;;;;;;;20.60;14.13;;;4.50;99.90;;;;;;5138401;27;20221;-60
2024/03/06 03:01:31;;;;;;;20.60;12.80;;;4.50;99.90;;;;;;5141356;27;20226;-62
2024/03/06 03:03:58;;;;;;;24.10;15.43;;;4.50;99.90;;;;;;5137470;27;20222;-62
2024/03/06 03:06:25;;;;;;;18.73;14.82;;;4.50;99.90;;;;;;5137751;27;20549;-62
2024/03/06 03:08:52;;;;;;;21.33;13.63;;;4.50;99.90;;;;;;5138703;27;20287;-61
2024/03/06 03:11:19;;;;;;;19.58;14.10;;;4.40;99.90;;;;;;5137515;27;20209;-62
2024/03/06 03:13:47;;;;;;;18.83;13.73;;;4.40;99.90;;;;;;5137901;27;20187;-62
2024/03/06 03:16:19;;;;;;;20.02;13.60;;;4.40;99.90;;;;;;5140306;27;20290;-62
2024/03/06 03:18:47;;;;;;;19.05;13.40;;;4.40;99.90;;;;;;5141763;27;20215;-62
2024/03/06 03:21:14;;;;;;;18.48;13.57;;;4.40;99.90;;;;;;5141586;27;20202;-63
2024/03/06 03:23:41;;;;;;;19.50;14.23;;;4.40;99.90;;;;;;5140747;27;20209;-62
2024/03/06 03:26:10;;;;;;;23.65;13.73;;;4.40;99.90;;;;;;5146565;27;20237;-62
2024/03/06 03:28:39;;;;;;;20.17;14.30;;;4.40;99.90;;;;;;5152591;27;20199;-62
2024/03/06 03:31:08;;;;;;;21.33;13.38;;;4.40;99.90;;;;;;5152696;27;20268;-62
2024/03/06 03:33:37;;;;;;;17.52;13.98;;;4.40;99.90;;;;;;5152230;27;20259;-62
2024/03/06 03:36:05;;;;;;;24.70;14.80;;;4.40;99.90;;;;;;5155109;27;20679;-62
2024/03/06 03:38:32;;;;;;;18.98;14.70;;;4.40;99.90;;;;;;5153259;27;20562;-62
2024/03/06 03:40:59;;;;;;;20.55;14.35;;;4.40;99.90;;;;;;5149884;27;20225;-61
2024/03/06 03:43:26;;;;;;;17.95;12.82;;;4.40;99.90;;;;;;5152973;27;20205;-63
2024/03/06 03:45:53;;;;;;;19.55;14.32;;;4.40;99.90;;;;;;5140598;27;20225;-62
2024/03/06 03:48:21;;;;;;;19.05;14.15;;;4.40;99.90;;;;;;5136625;27;20203;-62
2024/03/06 03:50:47;;;;;;;16.50;13.90;;;4.40;99.90;;;;;;5136216;27;20669;-62
2024/03/06 03:53:14;;;;;;;28.35;14.20;;;4.40;99.90;;;;;;5139319;27;20223;-61
2024/03/06 03:55:41;;;;;;;20.35;14.68;;;4.30;99.90;;;;;;5142806;27;20214;-61
2024/03/06 03:58:07;;;;;;;24.15;14.20;;;4.30;99.90;;;;;;5140080;27;20286;-62
2024/03/06 04:00:34;;;;;;;19.77;14.57;;;4.30;99.90;;;;;;5137299;27;20250;-62
2024/03/06 04:03:02;;;;;;;18.50;13.20;;;4.30;99.90;;;;;;5136120;27;20222;-63
2024/03/06 04:05:31;;;;;;;23.88;14.20;;;4.40;99.90;;;;;;5135746;27;20211;-62
2024/03/06 04:07:58;;;;;;;17.67;13.52;;;4.40;99.90;;;;;;5135512;27;20234;-62
2024/03/06 04:13:20;;;;;;;18.92;12.80;;;4.40;99.90;;;;;;5091948;27;20566;-62
2024/03/06 04:15:47;;;;;;;21.27;14.70;;;4.40;99.90;;;;;;5096338;28;20295;-62
2024/03/06 04:18:14;;;;;;;21.13;14.68;;;4.40;99.90;;;;;;5093143;28;20215;-63
2024/03/06 04:20:40;;;;;;;18.27;14.52;;;4.50;99.90;;;;;;5092192;28;20200;-62
2024/03/06 04:23:07;;;;;;;22.27;15.30;;;4.40;99.90;;;;;;5092345;28;20302;-64
2024/03/06 04:25:34;;;;;;;20.08;14.00;;;4.40;99.90;;;;;;5092689;28;20208;-63
2024/03/06 04:28:02;;;;;;;22.00;14.98;;;4.50;99.90;;;;;;5093498;28;20196;-62
2024/03/06 04:30:30;;;;;;;19.58;14.23;;;4.50;99.90;;;;;;5094113;28;20295;-62
2024/03/06 04:32:57;;;;;;;19.88;13.75;;;4.50;99.90;;;;;;5094236;28;20243;-61
2024/03/06 04:35:23;;;;;;;21.42;12.65;;;4.50;99.90;;;;;;5095022;28;20201;-62
2024/03/06 04:37:50;;;;;;;19.52;13.95;;;4.50;99.90;;;;;;5094860;28;20196;-61
2024/03/06 04:40:17;;;;;;;19.75;13.50;;;4.50;99.90;;;;;;5095312;28;20223;-62
2024/03/06 04:42:46;;;;;;;20.88;14.23;;;4.50;99.90;;;;;;5095557;28;20220;-62
2024/03/06 04:45:16;;;;;;;22.15;13.82;;;4.50;99.90;;;;;;5095358;28;20606;-62
2024/03/06 04:47:45;;;;;;;18.70;14.00;;;4.50;99.90;;;;;;5096156;28;20561;-62
2024/03/06 04:50:12;;;;;;;20.15;14.60;;;4.50;99.90;;;;;;5095209;28;20566;-61
2024/03/06 04:52:39;;;;;;;20.33;13.88;;;4.50;99.90;;;;;;5094540;28;20608;-62
2024/03/06 04:55:07;;;;;;;24.38;15.35;;;4.50;99.90;;;;;;5093976;28;20235;-61
2024/03/06 04:57:35;;;;;;;22.42;13.95;;;4.50;99.90;;;;;;5091563;28;20227;-62
2024/03/06 05:00:05;;;;;;;21.05;14.23;;;4.50;99.90;;;;;;5092274;28;20200;-61
2024/03/06 05:02:34;;;;;;;20.65;13.45;;;4.50;99.90;;;;;;5092971;28;20227;-61
2024/03/06 05:05:02;;;;;;;22.05;14.27;;;4.50;99.90;;;;;;5092647;28;20201;-62
2024/03/06 05:07:29;;;;;;;21.65;14.98;;;4.50;99.90;;;;;;5094750;28;20205;-62
2024/03/06 05:09:57;;;;;;;17.95;14.02;;;4.50;99.90;;;;;;5100143;28;20280;-62
2024/03/06 05:12:23;;;;;;;22.27;15.48;;;4.50;99.90;;;;;;5102020;28;20225;-62
2024/03/06 05:14:50;;;;;;;20.48;14.65;;;4.50;99.90;;;;;;5101943;28;20205;-61
2024/03/06 05:17:17;;;;;;;20.20;15.77;;;4.50;99.90;;;;;;5103618;28;20227;-62
2024/03/06 05:19:44;;;;;;;24.45;16.02;;;4.50;99.90;;;;;;5102182;28;20246;-61
2024/03/06 05:22:13;;;;;;;24.27;14.57;;;4.50;99.90;;;;;;5102787;28;20222;-61
2024/03/06 05:24:40;;;;;;;21.88;15.10;;;4.50;99.90;;;;;;5090456;28;20201;-61
2024/03/06 05:27:07;;;;;;;22.98;16.05;;;4.50;99.90;;;;;;5090429;28;20205;-62
2024/03/06 05:29:36;;;;;;;19.88;14.10;;;4.50;99.90;;;;;;5090634;28;20201;-61
2024/03/06 05:32:03;;;;;;;20.55;14.80;;;4.50;99.90;;;;;;5089079;28;20213;-62
2024/03/06 05:34:30;;;;;;;19.90;14.30;;;4.50;99.90;;;;;;5090736;28;20262;-63
2024/03/06 05:36:57;;;;;;;19.83;14.15;;;4.50;99.90;;;;;;5089149;28;20687;-62
2024/03/06 05:39:25;;;;;;;18.65;14.38;;;4.50;99.90;;;;;;5086799;28;20209;-62
2024/03/06 05:41:52;;;;;;;23.65;14.80;;;4.50;99.90;;;;;;5088917;28;20227;-62
2024/03/06 05:44:19;;;;;;;24.38;16.52;;;4.50;99.90;;;;;;5094027;28;20328;-62
2024/03/06 05:46:46;;;;;;;19.77;14.82;;;4.60;99.90;;;;;;5088875;28;20659;-61
2024/03/06 05:49:13;;;;;;;22.30;16.25;;;4.60;99.90;;;;;;5088600;28;20201;-62
2024/03/06 05:51:40;;;;;;;20.55;14.70;;;4.60;99.90;;;;;;5081179;28;20221;-62
2024/03/06 05:54:08;;;;;;;20.58;14.70;;;4.60;99.90;;;;;;5075656;28;20671;-62
2024/03/06 05:56:36;;;;;;;19.45;15.07;;;4.50;99.90;;;;;;5076103;28;20212;-62
2024/03/06 05:59:04;;;;;;;21.63;15.77;;;4.50;99.90;;;;;;5076334;28;20201;-61
2024/03/06 06:01:31;;;;;;;22.65;15.90;;;4.50;99.90;;;;;;5075716;28;20239;-62
2024/03/06 06:03:58;;;;;;;29.20;14.93;;;4.50;99.90;;;;;;5076184;28;20212;-63
2024/03/06 06:06:25;;;;;;;25.83;15.63;;;4.50;99.90;;;;;;5075915;28;20209;-62
2024/03/06 06:08:52;;;;;;;24.67;16.30;;;4.50;99.90;;;;;;5076386;28;20216;-62
2024/03/06 06:11:19;;;;;;;21.88;14.73;;;4.50;99.90;;;;;;5075731;28;20216;-62
2024/03/06 06:13:47;;;;;;;23.38;16.05;;;4.50;99.90;;;;;;5075710;28;20292;-62
2024/03/06 06:16:14;;;;;;;21.02;14.45;;;4.50;99.90;;;;;;5075319;28;20220;-61
2024/03/06 06:18:41;;;;;;;20.73;15.52;;;4.50;99.90;;;;;;5075588;28;20304;-61
2024/03/06 06:21:08;;;;;;;21.38;14.73;;;4.50;99.90;;;;;;5075443;28;20676;-62
2024/03/06 06:23:35;;;;;;;21.63;15.93;;;4.50;99.90;;;;;;5075345;28;20197;-62
2024/03/06 06:26:02;;;;;;;26.05;16.80;;;4.50;99.90;;;;;;5075202;28;20211;-61
2024/03/06 06:28:28;;;;;;;25.02;16.23;;;4.50;99.90;;;;;;5075909;28;20201;-62
2024/03/06 06:30:57;;;;;;;26.35;16.42;;;4.50;99.90;;;;;;5075560;28;20732;-62
2024/03/06 06:33:23;;;;;;;25.90;15.75;;;4.50;99.90;;;;;;5075096;28;20228;-61
2024/03/06 06:35:51;;;;;;;21.58;15.02;;;4.50;99.90;;;;;;5075046;28;20205;-62
2024/03/06 06:38:18;;;;;;;22.02;16.08;;;4.50;99.90;;;;;;5075315;28;20205;-62
2024/03/06 06:40:45;;;;;;;22.52;14.73;;;4.50;99.90;;;;;;5077935;28;20201;-62
2024/03/06 06:43:12;;;;;;;24.17;15.73;;;4.50;99.90;;;;;;5076315;28;20233;-62
2024/03/06 06:45:39;;;;;;;28.33;15.73;;;4.50;99.90;;;;;;5075975;28;20272;-62
2024/03/06 06:48:08;;;;;;;26.23;16.35;;;4.60;99.90;;;;;;5077611;28;20201;-62
2024/03/06 06:50:35;;;;;;;24.67;15.98;;;4.60;99.90;;;;;;5080067;28;20197;-62
2024/03/06 06:53:02;;;;;;;22.05;15.25;;;4.70;99.90;;;;;;5077395;28;20556;-62
2024/03/06 06:55:29;;;;;;;27.10;15.68;;;4.80;99.90;;;;;;5077607;28;20212;-61
2024/03/06 06:57:56;;;;;;;23.40;15.48;;;4.80;99.90;;;;;;5075689;28;20219;-61
2024/03/06 07:00:24;;;;;;;23.95;16.38;;;4.90;99.90;;;;;;5075819;28;20616;-63
2024/03/06 07:02:51;;;;;;;19.40;14.73;;;4.90;99.90;;;;;;5075679;28;20228;-63
2024/03/06 07:05:19;;;;;;;20.00;14.77;;;4.90;99.90;;;;;;5075449;28;20196;-61
2024/03/06 07:07:46;;;;;;;23.40;15.13;;;4.90;99.90;;;;;;5074962;28;20205;-61
2024/03/06 07:10:14;;;;;;;22.23;15.10;;;4.90;99.90;;;;;;5075594;28;20205;-61
2024/03/06 07:12:41;;;;;;;22.33;16.20;;;4.90;99.90;;;;;;5074861;28;20239;-62
2024/03/06 07:15:08;;;;;;;20.45;15.13;;;5.00;99.90;;;;;;5075567;28;20671;-62
2024/03/06 07:17:35;;;;;;;23.13;15.43;;;5.00;99.90;;;;;;5075925;28;20368;-61
2024/03/06 07:20:01;;;;;;;20.20;15.40;;;5.00;99.90;;;;;;5076999;28;20224;-62
2024/03/06 07:22:29;;;;;;;19.58;14.57;;;5.10;99.90;;;;;;5075182;28;20221;-63
2024/03/06 07:24:56;;;;;;;19.55;14.77;;;5.10;99.90;;;;;;5076327;28;20212;-62
2024/03/06 07:27:23;;;;;;;20.77;14.73;;;5.10;99.90;;;;;;5075453;28;20209;-60
2024/03/06 07:29:50;;;;;;;20.85;16.35;;;5.10;99.90;;;;;;5076637;28;20197;-62
2024/03/06 07:32:16;;;;;;;21.67;16.85;;;5.10;99.90;;;;;;5079763;28;20221;-62
2024/03/06 07:34:43;;;;;;;21.92;16.25;;;5.20;99.90;;;;;;5078599;28;20690;-62
2024/03/06 07:37:10;;;;;;;19.65;14.52;;;5.20;99.90;;;;;;5078913;28;20201;-62
2024/03/06 07:39:38;;;;;;;22.02;15.10;;;5.20;99.90;;;;;;5082238;28;20204;-62
2024/03/06 07:42:05;;;;;;;23.42;16.58;;;5.30;99.90;;;;;;5080433;28;20251;-62
2024/03/06 07:44:32;;;;;;;20.92;16.13;;;5.30;99.90;;;;;;5084498;28;20276;-62
2024/03/06 07:46:59;;;;;;;24.33;14.98;;;5.40;99.90;;;;;;5084433;28;20201;-62
2024/03/06 07:49:26;;;;;;;19.60;15.30;;;5.50;99.90;;;;;;5087054;28;20209;-62
2024/03/06 07:51:53;;;;;;;22.55;16.10;;;5.50;99.90;;;;;;5086276;28;20221;-62
2024/03/06 07:54:20;;;;;;;19.50;14.55;;;5.50;99.90;;;;;;5076323;28;20227;-63
2024/03/06 07:56:48;;;;;;;19.58;14.63;;;5.50;99.90;;;;;;5076681;28;20205;-63
2024/03/06 07:59:16;;;;;;;23.45;15.02;;;5.60;99.90;;;;;;5076152;28;20204;-62
2024/03/06 08:01:43;;;;;;;23.60;16.65;;;5.60;99.90;;;;;;5077000;28;20221;-64
2024/03/06 08:04:10;;;;;;;20.08;15.15;;;5.60;99.90;;;;;;5075907;28;20707;-62
2024/03/06 08:06:37;;;;;;;19.80;15.20;;;5.60;99.90;;;;;;5076178;28;20201;-61
2024/03/06 08:09:04;;;;;;;21.08;14.57;;;5.50;99.90;;;;;;5077058;28;20201;-61
2024/03/06 08:11:31;;;;;;;18.83;14.80;;;5.50;99.90;;;;;;5078089;28;20593;-62
2024/03/06 08:14:01;;;;;;;26.00;14.90;;;5.50;99.90;;;;;;5076892;28;20703;-63
2024/03/06 08:16:29;;;;;;;23.13;15.35;;;5.60;99.90;;;;;;5076053;28;20193;-63
2024/03/06 08:18:57;;;;;;;23.98;15.75;;;5.60;99.90;;;;;;5075172;28;20200;-63
2024/03/06 08:21:23;;;;;;;19.70;14.85;;;5.70;99.90;;;;;;5075920;28;20248;-61
2024/03/06 08:23:50;;;;;;;22.00;14.95;;;5.70;99.90;;;;;;5075917;28;20193;-61
2024/03/06 08:26:17;;;;;;;22.77;15.10;;;5.70;99.90;;;;;;5075441;28;20201;-61
2024/03/06 08:28:44;;;;;;;22.00;15.65;;;5.80;99.90;;;;;;5077109;28;20220;-63
2024/03/06 08:31:12;;;;;;;22.85;15.32;;;5.80;99.90;;;;;;5074283;28;20292;-63
2024/03/06 08:33:39;;;;;;;20.45;14.07;;;5.90;99.90;;;;;;5075309;28;20323;-60
2024/03/06 08:36:06;;;;;;;21.38;15.35;;;6.00;99.90;;;;;;5074630;28;20525;-62
2024/03/06 08:38:32;;;;;;;19.08;14.70;;;6.00;99.90;;;;;;5074279;28;20197;-63
2024/03/06 08:40:59;;;;;;;20.88;14.73;;;6.00;99.90;;;;;;5073823;28;20204;-62
2024/03/06 08:43:26;;;;;;;21.92;15.35;;;6.00;99.90;;;;;;5073463;28;20197;-62
2024/03/06 08:45:53;;;;;;;19.92;14.82;;;6.00;99.90;;;;;;5073707;28;20251;-62
2024/03/06 08:48:22;;;;;;;20.15;15.20;;;6.00;99.90;;;;;;5073758;28;20571;-61
2024/03/06 08:50:50;;;;;;;20.63;14.60;;;6.10;99.90;;;;;;5074957;28;20671;-62
2024/03/06 08:53:17;;;;;;;18.13;14.93;;;6.20;99.90;;;;;;5076141;28;20239;-61
2024/03/06 08:55:44;;;;;;;23.35;15.52;;;6.30;99.90;;;;;;5076439;28;20201;-63
2024/03/06 08:58:10;;;;;;;22.23;15.68;;;6.40;99.90;;;;;;5076361;28;20201;-63
2024/03/06 09:00:37;;;;;;;17.83;14.73;;;6.50;99.90;;;;;;5081045;28;20231;-62
2024/03/06 09:03:05;;;;;;;21.48;15.13;;;6.60;99.90;;;;;;5079331;28;20216;-62
2024/03/06 09:05:33;;;;;;;19.58;14.88;;;6.70;99.90;;;;;;5077781;28;20328;-63
2024/03/06 09:08:00;;;;;;;18.00;14.00;;;6.80;99.90;;;;;;5080384;28;20205;-62
2024/03/06 09:10:27;;;;;;;20.75;15.75;;;6.80;99.90;;;;;;5081654;28;20205;-63
2024/03/06 09:12:53;;;;;;;19.60;15.88;;;6.80;99.90;;;;;;5080471;28;20714;-61
2024/03/06 09:15:20;;;;;;;21.10;14.82;;;7.00;99.90;;;;;;5079421;28;20208;-62
2024/03/06 09:17:47;;;;;;;22.08;15.38;;;7.10;99.90;;;;;;5079071;28;20197;-62
2024/03/06 09:20:15;;;;;;;19.35;15.27;;;7.10;99.90;;;;;;5079679;28;20209;-62
2024/03/06 09:22:44;;;;;;;20.48;15.15;;;7.20;99.90;;;;;;5078664;28;20221;-63
2024/03/06 09:25:13;;;;;;;21.48;15.38;;;7.20;99.90;;;;;;5078159;28;20594;-63
2024/03/06 09:27:40;;;;;;;19.27;14.73;;;7.10;99.90;;;;;;5079281;28;20232;-63
2024/03/06 09:30:08;;;;;;;23.00;16.13;;;7.20;99.90;;;;;;5081364;28;20205;-62
2024/03/06 09:32:35;;;;;;;20.30;14.82;;;7.30;99.90;;;;;;5081206;28;20642;-61
2024/03/06 09:35:02;;;;;;;21.58;15.77;;;7.30;99.90;;;;;;5080894;28;20212;-63
2024/03/06 09:37:30;;;;;;;19.92;16.35;;;7.50;99.90;;;;;;5080226;28;20205;-62
2024/03/06 09:39:58;;;;;;;23.25;16.60;;;7.60;99.90;;;;;;5080353;28;20643;-62
2024/03/06 09:42:25;;;;;;;24.05;15.13;;;7.70;99.90;;;;;;5080323;28;20217;-63
2024/03/06 09:44:52;;;;;;;22.15;16.58;;;7.80;99.90;;;;;;5078701;28;20201;-62
2024/03/06 09:47:24;;;;;;;22.85;17.38;;;7.80;99.90;;;;;;5080166;28;20212;-63
2024/03/06 09:49:53;;;;;;;22.45;17.73;;;7.90;99.90;;;;;;5080901;28;20281;-62
2024/03/06 09:52:20;;;;;;;27.67;16.95;;;8.00;99.90;;;;;;5079064;28;20260;-61
2024/03/06 09:54:48;;;;;;;23.88;15.93;;;8.00;99.90;;;;;;5078550;28;20221;-63
2024/03/06 09:57:16;;;;;;;23.27;17.20;;;8.10;99.90;;;;;;5077759;28;20215;-62
2024/03/06 09:59:43;;;;;;;20.77;16.52;;;8.30;99.90;;;;;;5077622;28;20197;-62
2024/03/06 10:02:26;;;;;;;23.25;17.45;;;8.50;99.90;;;;;;5077276;28;20229;-61
2024/03/06 10:04:52;;;;;;;23.50;17.93;;;8.60;99.90;;;;;;5077714;28;20182;-63
2024/03/06 10:07:20;;;;;;;26.52;17.02;;;8.80;99.60;;;;;;5077924;28;20466;-61
2024/03/06 10:09:48;;;;;;;25.17;16.58;;;8.80;99.20;;;;;;5077953;28;20698;-62
2024/03/06 10:12:19;;;;;;;21.02;15.73;;;8.90;99.10;;;;;;5078594;28;20244;-65
2024/03/06 10:14:51;;;;;;;22.00;16.50;;;9.00;98.80;;;;;;5077406;28;20205;-62
2024/03/06 10:17:22;;;;;;;26.97;16.93;;;9.10;98.00;;;;;;5078021;28;20423;-62
2024/03/06 10:19:51;;;;;;;19.00;15.90;;;9.10;97.50;;;;;;5077077;28;20916;-61
2024/03/06 10:22:18;;;;;;;21.53;17.40;;;9.20;97.30;;;;;;5077766;28;20462;-63
2024/03/06 10:24:46;;;;;;;22.10;16.67;;;9.20;96.50;;;;;;5076434;28;20450;-63
2024/03/06 10:27:17;;;;;;;24.70;17.80;;;9.10;96.30;;;;;;5076612;28;20443;-61
2024/03/06 10:29:45;;;;;;;19.80;15.10;;;9.20;96.10;;;;;;5076874;28;20484;-62
2024/03/06 10:32:17;;;;;;;20.37;16.13;;;9.30;95.80;;;;;;5078026;28;20481;-62
2024/03/06 10:34:46;;;;;;;26.03;19.10;;;9.40;95.10;;;;;;5077258;28;20459;-64
2024/03/06 10:37:12;;;;;;;27.67;17.23;;;9.50;94.60;;;;;;5077545;28;20451;-63
2024/03/06 10:39:44;;;;;;;27.20;16.60;;;9.60;93.90;;;;;;5076519;28;20439;-62
2024/03/06 10:42:13;;;;;;;20.37;16.70;;;9.70;93.30;;;;;;5078300;28;20858;-63
2024/03/06 10:44:48;;;;;;;25.80;16.07;;;9.80;92.80;;;;;;5077624;28;20432;-62
2024/03/06 10:47:16;;;;;;;21.53;16.60;;;9.90;92.00;;;;;;5075605;28;20431;-62
2024/03/06 10:49:43;;;;;;;20.23;15.97;;;10.00;91.30;;;;;;5076170;28;20439;-62
2024/03/06 10:52:10;;;;;;;22.70;16.40;;;10.10;90.80;;;;;;5075274;28;20466;-62
2024/03/06 10:54:41;;;;;;;19.83;15.63;;;10.20;90.20;;;;;;5075369;28;20479;-62
2024/03/06 10:57:11;;;;;;;25.00;18.13;;;10.30;88.70;;;;;;5075880;28;20495;-62
2024/03/06 10:59:37;;;;;;;21.43;18.20;;;10.30;86.20;;;;;;5077261;28;20443;-61
2024/03/06 11:02:08;;;;;;;23.20;17.53;;;10.30;85.30;;;;;;5077106;28;20463;-63
2024/03/06 11:04:35;;;;;;;23.97;16.90;;;10.40;84.80;;;;;;5075648;28;20957;-62
2024/03/06 11:07:03;;;;;;;20.60;17.07;;;10.50;82.80;;;;;;5075692;28;20450;-63
2024/03/06 11:09:35;;;;;;;18.80;15.30;;;10.50;81.50;;;;;;5075602;28;20462;-62
2024/03/06 11:12:02;;;;;;;19.77;16.50;;;10.50;80.70;;;;;;5076659;28;20550;-63
2024/03/06 11:14:32;;;;;;;21.73;15.30;;;10.50;80.10;;;;;;5078343;28;20475;-62
2024/03/06 11:17:01;;;;;;;22.00;16.63;;;10.60;79.50;;;;;;5083825;28;20802;-62
2024/03/06 11:19:30;;;;;;;19.83;16.90;;;10.70;77.90;;;;;;5085877;28;20531;-62
2024/03/06 11:21:57;;;;;;;21.83;16.80;;;10.70;77.00;;;;;;5085340;28;20816;-62
2024/03/06 11:24:24;;;;;;;16.57;14.60;;;10.60;76.10;;;;;;5087827;28;20804;-61
2024/03/06 11:26:59;;;;;;;19.10;15.70;;;10.60;76.10;;;;;;5088984;28;20904;-61
2024/03/06 11:29:29;;;;;;;20.37;15.97;;;10.60;75.70;;;;;;5086225;28;20458;-63
2024/03/06 11:32:08;;;;;;;24.93;16.53;;;10.70;75.30;;;;;;5082244;28;20466;-62
2024/03/06 11:34:37;;;;;;;20.00;15.07;;;10.70;75.30;;;;;;5079373;28;20486;-63
2024/03/06 11:37:07;;;;;;;20.17;16.83;;;10.90;75.00;;;;;;5078369;28;20451;-62
2024/03/06 11:39:36;;;;;;;20.77;15.37;;;10.90;73.50;;;;;;5076763;28;20439;-62
2024/03/06 11:42:04;;;;;;;20.43;16.00;;;10.80;73.00;;;;;;5078893;28;20493;-62
2024/03/06 11:44:33;;;;;;;17.67;14.60;;;10.70;72.50;;;;;;5081081;28;20459;-60
2024/03/06 11:47:01;;;;;;;19.10;15.27;;;10.70;72.10;;;;;;5081055;28;20538;-62
2024/03/06 11:49:31;;;;;;;17.77;14.43;;;10.60;71.40;;;;;;5083012;28;20474;-63
2024/03/06 11:52:02;;;;;;;24.50;14.10;;;10.70;70.80;;;;;;5081934;28;20455;-61
2024/03/06 11:54:29;;;;;;;23.07;14.10;;;10.70;69.50;;;;;;5085287;28;20571;-62
2024/03/06 11:56:57;;;;;;;19.30;14.83;;;10.70;68.90;;;;;;5081311;28;20451;-62
2024/03/06 11:59:24;;;;;;;23.67;15.53;;;10.60;68.20;;;;;;5082921;28;20439;-62
2024/03/06 12:01:51;;;;;;;18.10;14.03;;;10.60;67.90;;;;;;5082834;28;20616;-62
2024/03/06 12:04:20;;;;;;;17.87;14.93;;;10.60;67.30;;;;;;5081634;28;20929;-61
2024/03/06 12:06:47;;;;;;;18.80;14.03;;;10.60;67.20;;;;;;5083189;28;20435;-63
2024/03/06 12:09:16;;;;;;;17.90;14.70;;;10.50;66.80;;;;;;5076684;28;20438;-62
2024/03/06 12:11:44;;;;;;;19.20;13.13;;;10.60;66.90;;;;;;5076885;28;20486;-61
2024/03/06 12:14:16;;;;;;;19.20;15.07;;;10.60;66.10;;;;;;5075926;28;20475;-62
2024/03/06 12:16:43;;;;;;;23.03;15.10;;;10.60;65.50;;;;;;5077126;28;20766;-62
2024/03/06 12:19:10;;;;;;;19.10;14.90;;;10.70;65.60;;;;;;5075892;28;20496;-61
2024/03/06 12:21:37;;;;;;;21.87;15.83;;;10.70;65.30;;;;;;5075944;28;20467;-62
2024/03/06 12:24:06;;;;;;;19.70;17.57;;;10.70;65.10;;;;;;5077571;28;20435;-61
2024/03/06 12:26:34;;;;;;;17.80;14.77;;;10.60;65.00;;;;;;5079080;28;20967;-61
2024/03/06 12:29:08;;;;;;;24.83;14.63;;;10.60;65.80;;;;;;5076196;28;20439;-61
2024/03/06 12:31:36;;;;;;;21.87;16.03;;;10.60;65.50;;;;;;5078425;28;20517;-61
2024/03/06 12:34:03;;;;;;;26.53;17.23;;;10.60;65.10;;;;;;5083682;28;20482;-62
2024/03/06 12:36:31;;;;;;;24.13;16.60;;;10.70;65.80;;;;;;5085187;28;20507;-61
2024/03/06 12:39:01;;;;;;;21.33;14.80;;;10.80;65.20;;;;;;5081430;28;20447;-62
2024/03/06 12:41:29;;;;;;;18.93;16.13;;;10.80;65.10;;;;;;5081564;28;20546;-62